Time;durP1;ratioP1;P1;durP2;ratioP2;P2;SDS_P1;SDS_P2;PMS_P1;PMS_P2;Temp;Humidity;BMP_temperature;BMP_pressure;BME280_temperature;BME280_humidity;BME280_pressure;Samples;Min_cycle;Max_cycle;Signal;HPM_P1;HPM_P2
2022/04/06 00:01:10;;;;;;;6.60;3.43;;;20.40;46.50;;;;;;5040789;27;91420;-65
2022/04/06 00:03:38;;;;;;;3.80;2.40;;;20.40;46.50;;;;;;5053302;27;88513;-63
2022/04/06 00:06:08;;;;;;;6.80;3.50;;;20.40;46.50;;;;;;5042529;27;89188;-64
2022/04/06 00:08:38;;;;;;;7.10;3.10;;;20.40;46.50;;;;;;5050951;27;88606;-64
2022/04/06 00:11:06;;;;;;;5.33;2.77;;;20.40;46.50;;;;;;5052845;27;90262;-63
2022/04/06 00:13:34;;;;;;;4.07;2.43;;;20.40;46.50;;;;;;5038325;27;90426;-65
2022/04/06 00:16:02;;;;;;;3.33;2.50;;;20.40;46.50;;;;;;5043241;27;88886;-63
2022/04/06 00:18:30;;;;;;;5.73;2.87;;;20.40;46.40;;;;;;5059188;27;88634;-63
2022/04/06 00:20:58;;;;;;;5.10;2.80;;;20.40;46.40;;;;;;5045101;27;89621;-64
2022/04/06 00:23:28;;;;;;;4.13;2.30;;;20.40;46.40;;;;;;5046978;27;89670;-64
2022/04/06 00:25:56;;;;;;;4.83;2.50;;;20.40;46.40;;;;;;5038039;28;90046;-64
2022/04/06 00:28:24;;;;;;;5.03;2.80;;;20.40;46.40;;;;;;5038685;28;88226;-64
2022/04/06 00:30:52;;;;;;;5.97;2.40;;;20.40;46.40;;;;;;5040261;27;89687;-63
2022/04/06 00:33:20;;;;;;;4.37;2.60;;;20.40;46.40;;;;;;5041175;27;88623;-63
2022/04/06 00:35:50;;;;;;;4.43;2.80;;;20.40;46.40;;;;;;5040978;27;88518;-64
2022/04/06 00:38:19;;;;;;;3.77;2.40;;;20.40;46.40;;;;;;5046904;27;89064;-64
2022/04/06 00:40:48;;;;;;;4.57;2.40;;;20.40;46.40;;;;;;5041535;27;89836;-63
2022/04/06 00:43:16;;;;;;;4.53;2.70;;;20.40;46.40;;;;;;5039155;27;88917;-64
2022/04/06 00:45:44;;;;;;;3.50;1.80;;;20.30;46.30;;;;;;5052840;27;89217;-64
2022/04/06 00:48:13;;;;;;;5.50;2.60;;;20.40;46.40;;;;;;5038522;28;88741;-64
2022/04/06 00:50:41;;;;;;;5.37;2.00;;;20.40;46.40;;;;;;5044802;27;90622;-64
2022/04/06 00:53:10;;;;;;;6.90;3.17;;;20.40;46.40;;;;;;5043602;27;88961;-64
2022/04/06 00:55:39;;;;;;;5.03;2.53;;;20.30;46.30;;;;;;5049678;27;88761;-64
2022/04/06 00:58:09;;;;;;;4.33;2.73;;;20.30;46.20;;;;;;5041963;27;88653;-64
2022/04/06 01:00:36;;;;;;;4.50;2.63;;;20.30;46.30;;;;;;5046819;27;89246;-66
2022/04/06 01:03:05;;;;;;;8.30;2.67;;;20.30;46.30;;;;;;5047843;27;90016;-65
2022/04/06 01:05:35;;;;;;;5.27;2.60;;;20.30;46.20;;;;;;5049722;27;89361;-63
2022/04/06 01:08:05;;;;;;;5.47;2.70;;;20.30;46.20;;;;;;5049198;27;88516;-64
2022/04/06 01:10:33;;;;;;;8.97;3.20;;;20.30;46.30;;;;;;5040040;27;91252;-64
2022/04/06 01:13:01;;;;;;;5.47;2.83;;;20.30;46.30;;;;;;5040568;27;90489;-64
2022/04/06 01:15:30;;;;;;;5.87;2.80;;;20.20;46.20;;;;;;5043111;27;90047;-64
2022/04/06 01:17:58;;;;;;;7.20;2.70;;;20.30;46.20;;;;;;5057895;27;88940;-63
2022/04/06 01:20:26;;;;;;;3.50;2.30;;;20.30;46.20;;;;;;5053623;27;90046;-63
2022/04/06 01:22:56;;;;;;;5.67;2.13;;;20.30;46.20;;;;;;5053430;27;91537;-64
2022/04/06 01:25:24;;;;;;;4.40;2.60;;;20.20;46.10;;;;;;5040371;28;88427;-64
2022/04/06 01:27:52;;;;;;;4.83;2.43;;;20.30;46.20;;;;;;5040528;27;89017;-64
2022/04/06 01:30:20;;;;;;;4.60;2.43;;;20.30;46.20;;;;;;5040641;27;90976;-64
2022/04/06 01:32:48;;;;;;;5.40;2.23;;;20.30;46.20;;;;;;5040856;27;90489;-63
2022/04/06 01:35:16;;;;;;;4.97;2.63;;;20.30;46.20;;;;;;5028766;28;91621;-63
2022/04/06 01:37:44;;;;;;;4.13;2.30;;;20.30;46.20;;;;;;5043171;27;88745;-64
2022/04/06 01:40:13;;;;;;;5.20;2.37;;;20.30;46.20;;;;;;5054284;27;89708;-64
2022/04/06 01:42:42;;;;;;;4.37;2.50;;;20.30;46.90;;;;;;5041328;27;90236;-64
2022/04/06 01:45:10;;;;;;;4.37;2.50;;;20.30;46.20;;;;;;5040854;27;88790;-64
2022/04/06 01:47:38;;;;;;;4.23;2.17;;;20.30;46.20;;;;;;5041163;27;88465;-64
2022/04/06 01:52:52;;;;;;;3.83;2.33;;;20.30;46.20;;;;;;5051495;27;89568;-63
2022/04/06 01:55:21;;;;;;;4.97;2.37;;;20.30;46.20;;;;;;5058586;27;88333;-65
2022/04/06 01:57:50;;;;;;;4.70;2.50;;;20.20;46.10;;;;;;5060509;27;88839;-64
2022/04/06 02:00:19;;;;;;;5.23;2.30;;;20.20;46.10;;;;;;5052864;27;92635;-64
2022/04/06 02:02:49;;;;;;;4.87;2.93;;;20.20;46.10;;;;;;5047337;27;88907;-64
2022/04/06 02:05:17;;;;;;;4.60;2.73;;;20.20;46.70;;;;;;5047017;27;88480;-64
2022/04/06 02:07:47;;;;;;;4.70;3.07;;;20.20;46.10;;;;;;5040041;27;88687;-64
2022/04/06 02:10:15;;;;;;;2.73;1.90;;;20.20;46.00;;;;;;5039745;27;89077;-64
2022/04/06 02:12:44;;;;;;;5.67;2.47;;;20.20;46.10;;;;;;5039618;27;90509;-64
2022/04/06 02:15:13;;;;;;;3.87;2.47;;;20.20;46.00;;;;;;5037635;27;91415;-64
2022/04/06 02:17:42;;;;;;;3.40;2.00;;;20.20;46.00;;;;;;5052902;27;88621;-64
2022/04/06 02:20:10;;;;;;;4.80;2.27;;;20.20;46.00;;;;;;5049661;27;89505;-64
2022/04/06 02:22:40;;;;;;;5.23;1.83;;;20.20;46.00;;;;;;5041350;27;89026;-65
2022/04/06 02:25:09;;;;;;;7.00;2.60;;;20.20;46.00;;;;;;5048978;27;89745;-64
2022/04/06 02:27:46;;;;;;;2.90;1.93;;;20.20;46.00;;;;;;5042924;27;88920;-65
2022/04/06 02:30:14;;;;;;;3.77;2.47;;;20.10;46.00;;;;;;5045974;27;90211;-64
2022/04/06 02:32:42;;;;;;;2.93;2.23;;;20.20;46.00;;;;;;5053792;27;90117;-65
2022/04/06 02:35:10;;;;;;;3.73;2.13;;;20.10;45.90;;;;;;5043421;27;88866;-64
2022/04/06 02:37:39;;;;;;;12.03;2.83;;;20.10;46.50;;;;;;5060331;27;88435;-64
2022/04/06 02:40:08;;;;;;;4.63;2.50;;;20.10;45.90;;;;;;5059878;27;90198;-64
2022/04/06 02:42:36;;;;;;;4.77;2.30;;;20.10;45.90;;;;;;5053521;27;93477;-65
2022/04/06 02:45:06;;;;;;;3.30;1.63;;;20.10;46.00;;;;;;5039428;27;88606;-66
2022/04/06 02:47:34;;;;;;;5.97;2.10;;;20.10;46.60;;;;;;5043557;27;88555;-64
2022/04/06 02:50:03;;;;;;;4.17;2.17;;;20.10;45.90;;;;;;5029991;28;90295;-64
2022/04/06 02:52:31;;;;;;;5.60;2.27;;;20.10;45.90;;;;;;5036547;28;90146;-64
2022/04/06 02:54:59;;;;;;;2.87;1.87;;;20.10;45.90;;;;;;5038718;27;89287;-64
2022/04/06 02:57:27;;;;;;;4.27;2.33;;;20.10;45.90;;;;;;5039815;28;88380;-64
2022/04/06 02:59:55;;;;;;;5.30;2.00;;;20.10;45.80;;;;;;5039156;28;90714;-64
2022/04/06 03:02:24;;;;;;;4.03;1.90;;;20.10;45.90;;;;;;5039066;28;89083;-64
2022/04/06 03:04:52;;;;;;;3.33;1.93;;;20.20;46.00;;;;;;5039106;27;88968;-64
2022/04/06 03:07:20;;;;;;;3.27;1.70;;;20.20;45.90;;;;;;5039240;28;88462;-64
2022/04/06 03:09:48;;;;;;;1.63;1.43;;;20.10;45.80;;;;;;5039424;28;88560;-65
2022/04/06 03:12:16;;;;;;;4.07;1.93;;;20.10;45.80;;;;;;5038759;27;89038;-64
2022/04/06 03:14:44;;;;;;;4.13;2.40;;;20.10;45.80;;;;;;5038711;28;88973;-64
2022/04/06 03:17:15;;;;;;;4.70;1.77;;;20.10;45.80;;;;;;5039082;28;88525;-64
2022/04/06 03:19:46;;;;;;;2.27;1.73;;;20.10;45.80;;;;;;5039003;28;88901;-64
2022/04/06 03:22:17;;;;;;;4.90;2.20;;;20.10;45.80;;;;;;5038894;28;90370;-64
2022/04/06 03:24:45;;;;;;;2.67;1.73;;;20.10;45.70;;;;;;5038516;27;88291;-64
2022/04/06 03:27:13;;;;;;;2.87;1.50;;;20.10;45.80;;;;;;5038874;28;88481;-65
2022/04/06 03:29:41;;;;;;;3.20;2.00;;;20.10;45.70;;;;;;5038705;27;89536;-64
2022/04/06 03:32:10;;;;;;;3.77;1.63;;;20.00;45.70;;;;;;5038517;27;89980;-64
2022/04/06 03:34:38;;;;;;;2.13;1.53;;;20.10;45.70;;;;;;5039702;28;88590;-64
2022/04/06 03:37:09;;;;;;;2.43;1.40;;;20.00;45.70;;;;;;5039271;28;88474;-64
2022/04/06 03:39:37;;;;;;;3.43;1.33;;;20.00;45.60;;;;;;5038530;27;90709;-64
2022/04/06 03:42:06;;;;;;;3.30;2.00;;;20.00;45.60;;;;;;5038560;27;90017;-64
2022/04/06 03:44:34;;;;;;;4.23;2.20;;;20.00;45.60;;;;;;5039122;27;88384;-64
2022/04/06 03:47:02;;;;;;;3.27;1.60;;;20.00;45.60;;;;;;5039395;28;88584;-63
2022/04/06 03:49:31;;;;;;;2.13;1.60;;;20.00;45.60;;;;;;5039880;27;89271;-64
2022/04/06 03:51:59;;;;;;;5.03;1.60;;;20.00;45.60;;;;;;5038588;28;89967;-65
2022/04/06 03:54:28;;;;;;;3.63;1.67;;;20.00;45.60;;;;;;5042127;27;90172;-64
2022/04/06 03:56:56;;;;;;;4.73;2.23;;;20.00;45.60;;;;;;5039086;28;88644;-64
2022/04/06 03:59:24;;;;;;;3.93;1.83;;;20.00;45.60;;;;;;5038740;28;91831;-64
2022/04/06 04:01:52;;;;;;;3.67;2.20;;;20.00;45.60;;;;;;5038606;28;91755;-64
2022/04/06 04:04:20;;;;;;;3.97;1.90;;;20.00;45.60;;;;;;5039488;27;88517;-65
2022/04/06 04:06:48;;;;;;;3.97;1.73;;;19.90;45.50;;;;;;5038621;28;89021;-64
2022/04/06 04:09:16;;;;;;;2.37;1.70;;;20.00;45.60;;;;;;5038123;28;90697;-64
2022/04/06 04:11:45;;;;;;;4.67;2.10;;;19.90;45.60;;;;;;5038076;28;90050;-64
2022/04/06 04:14:14;;;;;;;4.20;1.70;;;19.90;45.50;;;;;;5049994;27;91207;-65
2022/04/06 04:16:42;;;;;;;3.47;1.87;;;19.90;45.50;;;;;;5038215;28;88667;-64
2022/04/06 04:19:10;;;;;;;3.37;1.80;;;19.90;45.50;;;;;;5038355;27;89611;-64
2022/04/06 04:21:38;;;;;;;4.20;1.77;;;20.00;45.60;;;;;;5037629;28;88831;-64
2022/04/06 04:24:09;;;;;;;2.33;1.50;;;20.00;45.60;;;;;;5047498;27;88612;-64
2022/04/06 04:26:38;;;;;;;2.10;1.43;;;20.00;45.60;;;;;;5018231;28;89203;-64
2022/04/06 04:29:08;;;;;;;3.60;1.80;;;20.00;45.60;;;;;;5018350;28;90804;-64
2022/04/06 04:31:36;;;;;;;3.50;1.90;;;19.90;45.50;;;;;;5018050;28;88882;-64
2022/04/06 04:34:04;;;;;;;3.30;1.63;;;20.00;45.60;;;;;;5030814;27;89706;-65
2022/04/06 04:36:32;;;;;;;2.17;1.70;;;20.00;45.60;;;;;;5058470;27;88709;-65
2022/04/06 04:39:00;;;;;;;1.70;1.60;;;20.00;45.60;;;;;;5042450;27;90066;-64
2022/04/06 04:41:28;;;;;;;2.40;1.57;;;20.00;45.50;;;;;;5037455;28;89273;-64
2022/04/06 04:43:56;;;;;;;1.63;1.23;;;19.90;45.50;;;;;;5038234;27;89692;-64
2022/04/06 04:46:26;;;;;;;2.07;1.90;;;20.00;45.50;;;;;;5042536;27;88685;-65
2022/04/06 04:48:54;;;;;;;3.47;1.53;;;19.90;45.40;;;;;;5041603;27;89488;-65
2022/04/06 04:51:22;;;;;;;2.63;1.80;;;19.90;45.40;;;;;;5058696;27;89010;-64
2022/04/06 04:53:50;;;;;;;5.17;1.67;;;19.90;45.40;;;;;;5058728;27;89026;-65
2022/04/06 04:56:18;;;;;;;6.90;2.07;;;19.90;45.40;;;;;;5042090;27;88462;-65
2022/04/06 04:58:46;;;;;;;3.80;1.50;;;19.90;45.40;;;;;;5041192;28;93077;-64
2022/04/06 05:01:15;;;;;;;2.90;1.33;;;19.90;45.40;;;;;;5041482;28;90140;-65
2022/04/06 05:03:45;;;;;;;3.00;1.83;;;19.90;45.40;;;;;;5041115;27;88501;-66
2022/04/06 05:06:13;;;;;;;5.57;1.60;;;19.90;45.40;;;;;;5028685;27;88692;-66
2022/04/06 05:08:40;;;;;;;3.00;1.60;;;19.90;45.40;;;;;;5020802;28;90758;-67
2022/04/06 05:11:08;;;;;;;4.30;1.63;;;19.90;45.40;;;;;;5040443;28;90839;-66
2022/04/06 05:13:37;;;;;;;3.90;1.50;;;19.80;45.30;;;;;;5033453;27;89040;-66
2022/04/06 05:16:06;;;;;;;2.93;1.43;;;19.80;45.20;;;;;;5022933;27;88661;-66
2022/04/06 05:18:34;;;;;;;6.57;1.43;;;19.80;45.20;;;;;;5023769;28;90281;-66
2022/04/06 05:21:08;;;;;;;3.80;1.20;;;19.80;45.20;;;;;;5040210;27;90424;-66
2022/04/06 05:23:36;;;;;;;3.90;1.53;;;19.80;45.20;;;;;;5049086;27;90617;-66
2022/04/06 05:26:04;;;;;;;1.57;1.40;;;19.70;45.20;;;;;;5043762;27;88401;-66
2022/04/06 05:28:32;;;;;;;4.33;1.13;;;19.70;45.20;;;;;;5040101;28;90503;-66
2022/04/06 05:31:00;;;;;;;3.63;1.80;;;19.80;45.20;;;;;;5039824;28;90243;-66
2022/04/06 05:33:28;;;;;;;3.17;0.97;;;19.70;45.20;;;;;;5040026;27;89063;-66
2022/04/06 05:35:56;;;;;;;2.43;1.37;;;19.70;45.20;;;;;;5040611;27;88525;-66
2022/04/06 05:38:26;;;;;;;1.73;1.00;;;19.70;45.20;;;;;;5041073;28;89312;-66
2022/04/06 05:40:54;;;;;;;3.93;1.20;;;19.70;45.20;;;;;;5042314;27;89342;-66
2022/04/06 05:43:22;;;;;;;3.43;1.43;;;19.70;45.10;;;;;;5046955;27;89032;-66
2022/04/06 05:45:51;;;;;;;2.23;1.20;;;19.70;45.10;;;;;;5046421;27;88520;-65
2022/04/06 05:48:19;;;;;;;2.73;1.50;;;19.70;45.10;;;;;;5041095;28;89630;-67
2022/04/06 05:50:47;;;;;;;5.30;1.43;;;19.70;45.10;;;;;;5051918;27;90416;-66
2022/04/06 05:53:15;;;;;;;3.00;1.23;;;19.70;45.10;;;;;;5049570;27;88755;-66
2022/04/06 05:55:47;;;;;;;4.30;1.40;;;19.70;45.10;;;;;;5047577;27;88538;-67
2022/04/06 05:58:15;;;;;;;4.73;1.27;;;19.70;45.10;;;;;;5040316;27;92356;-66
2022/04/06 06:00:44;;;;;;;3.73;1.30;;;19.70;45.10;;;;;;5049651;27;89525;-66
2022/04/06 06:03:12;;;;;;;4.57;1.70;;;19.70;45.20;;;;;;5047903;27;90041;-68
2022/04/06 06:05:40;;;;;;;1.63;1.23;;;19.70;45.20;;;;;;5052768;27;88531;-70
2022/04/06 06:08:18;;;;;;;2.67;1.20;;;19.70;45.40;;;;;;5038523;27;92650;-68
2022/04/06 06:10:47;;;;;;;4.10;1.33;;;19.70;45.60;;;;;;5040169;27;89958;-66
2022/04/06 06:13:15;;;;;;;2.00;1.00;;;19.70;45.60;;;;;;5044113;27;89696;-67
2022/04/06 06:15:43;;;;;;;4.93;1.43;;;19.70;45.70;;;;;;5044284;27;88512;-66
2022/04/06 06:18:12;;;;;;;9.93;1.40;;;19.70;45.80;;;;;;5040743;28;90619;-66
2022/04/06 06:20:40;;;;;;;5.20;1.90;;;19.80;45.90;;;;;;5041333;27;90294;-66
2022/04/06 06:23:08;;;;;;;4.47;1.30;;;19.80;46.00;;;;;;5039860;27;89651;-66
2022/04/06 06:25:37;;;;;;;1.87;1.07;;;19.80;46.10;;;;;;5059263;27;89021;-66
2022/04/06 06:28:07;;;;;;;1.57;1.10;;;19.80;46.10;;;;;;5060211;27;90641;-66
2022/04/06 06:30:35;;;;;;;2.10;0.93;;;19.80;46.20;;;;;;5042057;27;89655;-66
2022/04/06 06:33:03;;;;;;;2.40;1.33;;;19.90;46.40;;;;;;5039817;27;88885;-66
2022/04/06 06:35:31;;;;;;;4.63;1.23;;;19.90;46.50;;;;;;5049871;27;88630;-66
2022/04/06 06:37:59;;;;;;;2.53;1.20;;;19.90;46.50;;;;;;5060793;27;91078;-66
2022/04/06 06:40:27;;;;;;;2.23;1.17;;;19.90;46.60;;;;;;5060871;27;90120;-64
2022/04/06 06:42:55;;;;;;;3.03;1.23;;;19.90;46.70;;;;;;5050793;27;90237;-64
2022/04/06 06:45:25;;;;;;;3.00;1.27;;;19.90;46.80;;;;;;5060502;27;88434;-64
2022/04/06 06:47:53;;;;;;;2.03;1.17;;;19.90;46.90;;;;;;5060826;27;91569;-66
2022/04/06 06:50:21;;;;;;;4.50;1.03;;;20.00;47.60;;;;;;5047944;27;93284;-66
2022/04/06 06:52:49;;;;;;;2.77;1.40;;;19.90;47.00;;;;;;5037082;28;89747;-65
2022/04/06 06:55:19;;;;;;;3.03;1.50;;;19.80;47.60;;;;;;5039320;27;88629;-64
2022/04/06 06:57:47;;;;;;;2.33;1.40;;;20.00;47.50;;;;;;5040610;28;90663;-67
2022/04/06 07:00:17;;;;;;;2.03;1.60;;;20.00;47.30;;;;;;5040085;28;91695;-66
2022/04/06 07:02:46;;;;;;;1.87;1.43;;;20.10;47.20;;;;;;5039930;28;89808;-66
2022/04/06 07:05:14;;;;;;;2.93;1.10;;;20.10;47.30;;;;;;5031989;28;88650;-64
2022/04/06 07:07:52;;;;;;;4.13;1.37;;;20.20;47.30;;;;;;5023787;28;90521;-64
2022/04/06 07:10:20;;;;;;;0.87;0.73;;;20.30;47.30;;;;;;5039804;27;89240;-64
2022/04/06 07:12:48;;;;;;;3.33;1.10;;;20.40;47.20;;;;;;5039153;27;91482;-66
2022/04/06 07:15:16;;;;;;;2.40;0.90;;;20.60;47.20;;;;;;5038065;27;90369;-67
2022/04/06 07:17:46;;;;;;;2.00;1.00;;;20.80;47.10;;;;;;5039477;28;90768;-67
2022/04/06 07:20:14;;;;;;;3.20;1.33;;;21.10;47.10;;;;;;5040280;28;90010;-67
2022/04/06 07:22:42;;;;;;;3.70;1.30;;;21.30;46.90;;;;;;5038864;28;88845;-67
2022/04/06 07:25:10;;;;;;;2.10;0.80;;;21.50;46.70;;;;;;5034896;28;88754;-67
2022/04/06 07:27:38;;;;;;;1.90;0.63;;;21.70;46.60;;;;;;5038844;28;93553;-67
2022/04/06 07:30:07;;;;;;;1.57;0.83;;;21.80;46.50;;;;;;5040330;28;90059;-66
2022/04/06 07:32:35;;;;;;;1.77;1.10;;;21.90;46.40;;;;;;5029746;28;88248;-66
2022/04/06 07:35:06;;;;;;;2.67;1.40;;;22.00;46.40;;;;;;5019470;28;88590;-66
2022/04/06 07:37:37;;;;;;;3.57;0.80;;;22.00;46.40;;;;;;5035661;28;90757;-67
2022/04/06 07:40:09;;;;;;;2.97;1.10;;;22.00;46.20;;;;;;5038989;28;88882;-67
2022/04/06 07:42:37;;;;;;;1.00;0.90;;;22.00;46.20;;;;;;5042718;27;88936;-67
2022/04/06 07:45:07;;;;;;;2.40;0.77;;;22.10;46.30;;;;;;5059742;27;88567;-67
2022/04/06 07:47:35;;;;;;;4.07;1.20;;;22.10;46.20;;;;;;5047151;27;92877;-67
2022/04/06 07:50:03;;;;;;;2.23;0.90;;;22.10;46.80;;;;;;5039254;27;89933;-66
2022/04/06 07:52:33;;;;;;;0.83;0.60;;;22.10;46.70;;;;;;5038948;28;93378;-67
2022/04/06 07:55:01;;;;;;;3.33;0.90;;;22.10;46.10;;;;;;5039570;28;88828;-66
2022/04/06 07:57:29;;;;;;;1.57;0.73;;;22.20;46.20;;;;;;5037944;28;90962;-66
2022/04/06 07:59:57;;;;;;;0.97;0.60;;;22.20;46.10;;;;;;5040318;27;90311;-66
2022/04/06 08:02:25;;;;;;;4.97;1.03;;;22.20;46.10;;;;;;5053253;27;88740;-66
2022/04/06 08:04:53;;;;;;;1.70;0.80;;;22.20;46.10;;;;;;5039042;27;88492;-66
2022/04/06 08:07:21;;;;;;;3.13;0.70;;;22.30;46.10;;;;;;5049040;27;90214;-67
2022/04/06 08:09:51;;;;;;;2.10;0.90;;;22.40;46.10;;;;;;5036999;27;88978;-66
2022/04/06 08:12:19;;;;;;;2.37;0.83;;;22.40;46.00;;;;;;5029120;27;90487;-66
2022/04/06 08:14:48;;;;;;;0.93;0.50;;;22.50;46.00;;;;;;5057295;27;88739;-66
2022/04/06 08:17:17;;;;;;;2.17;0.97;;;22.50;45.90;;;;;;5044061;27;89308;-66
2022/04/06 08:19:44;;;;;;;1.03;0.80;;;22.60;45.90;;;;;;5043931;28;90016;-66
2022/04/06 08:22:13;;;;;;;0.90;0.60;;;22.60;45.90;;;;;;5042010;27;88832;-66
2022/04/06 08:24:41;;;;;;;2.10;0.83;;;22.80;46.00;;;;;;5047828;27;88784;-66
2022/04/06 08:27:10;;;;;;;5.20;0.70;;;22.90;46.10;;;;;;5050676;27;90934;-68
2022/04/06 08:29:38;;;;;;;1.77;0.70;;;23.00;46.10;;;;;;5049472;27;93042;-66
2022/04/06 08:32:07;;;;;;;3.67;0.73;;;23.20;46.10;;;;;;5045475;27;88524;-67
2022/04/06 08:34:35;;;;;;;1.73;0.50;;;23.30;46.10;;;;;;5042492;27;88685;-67
2022/04/06 08:37:03;;;;;;;2.70;0.80;;;23.40;46.10;;;;;;5046490;27;89603;-66
2022/04/06 08:39:31;;;;;;;4.30;0.83;;;23.50;46.10;;;;;;5045259;27;90016;-68
2022/04/06 08:42:00;;;;;;;0.50;0.40;;;23.60;46.10;;;;;;5064191;27;89922;-66
2022/04/06 08:44:46;;;;;;;2.47;0.67;;;23.60;46.20;;;;;;5063369;27;88663;-69
2022/04/06 08:47:14;;;;;;;3.30;0.90;;;23.60;46.30;;;;;;5049651;27;90642;-70
2022/04/06 08:49:42;;;;;;;2.80;0.83;;;23.50;46.30;;;;;;5043934;27;90138;-69
2022/04/06 08:52:11;;;;;;;1.33;0.60;;;23.50;46.40;;;;;;5043910;27;90513;-67
2022/04/06 08:54:39;;;;;;;5.40;1.10;;;23.50;46.50;;;;;;5045302;27;88825;-66
2022/04/06 08:57:07;;;;;;;2.70;1.30;;;23.30;46.40;;;;;;5046609;27;89700;-65
2022/04/06 08:59:35;;;;;;;3.80;1.50;;;23.20;47.00;;;;;;5051642;27;89930;-70
2022/04/06 09:02:06;;;;;;;2.20;1.23;;;23.10;46.40;;;;;;5062289;27;89269;-67
2022/04/06 09:04:40;;;;;;;1.83;0.93;;;22.90;46.30;;;;;;5030248;27;88396;-71
2022/04/06 09:07:09;;;;;;;3.00;0.87;;;22.80;46.40;;;;;;5062191;27;89734;-69
2022/04/06 09:09:37;;;;;;;6.23;1.13;;;22.70;46.30;;;;;;5057097;27;90057;-69
2022/04/06 09:12:08;;;;;;;4.33;1.07;;;22.60;46.20;;;;;;5045956;27;88421;-67
2022/04/06 09:14:37;;;;;;;6.53;1.37;;;22.50;46.20;;;;;;5057836;27;88502;-74
2022/04/06 09:17:07;;;;;;;2.00;0.93;;;22.40;46.30;;;;;;5064287;27;93491;-77
2022/04/06 09:19:37;;;;;;;4.93;1.43;;;22.30;46.60;;;;;;5050842;27;89181;-73
2022/04/06 09:22:07;;;;;;;4.27;1.00;;;22.20;46.80;;;;;;5055761;27;88896;-79
2022/04/06 09:24:35;;;;;;;3.67;1.43;;;22.10;46.90;;;;;;5065888;27;88679;-77
2022/04/06 09:27:04;;;;;;;2.03;0.97;;;22.00;47.00;;;;;;5049188;27;89584;-75
2022/04/06 09:29:35;;;;;;;6.33;1.37;;;22.00;47.10;;;;;;5044556;28;90243;-76
2022/04/06 09:32:08;;;;;;;3.97;1.77;;;21.90;47.10;;;;;;5040594;27;90297;-75
2022/04/06 09:34:56;;;;;;;4.13;1.40;;;21.80;47.10;;;;;;5032146;28;88295;-76
2022/04/06 09:37:25;;;;;;;3.67;1.37;;;21.80;47.00;;;;;;5041161;27;90792;-74
2022/04/06 09:39:54;;;;;;;7.83;1.47;;;21.80;47.00;;;;;;5041773;27;90169;-74
2022/04/06 09:42:22;;;;;;;1.37;0.80;;;21.70;47.00;;;;;;5041896;28;89006;-75
2022/04/06 09:47:42;;;;;;;4.00;1.20;;;21.60;46.90;;;;;;5042059;28;90205;-73
2022/04/06 09:50:15;;;;;;;6.03;1.43;;;21.50;46.80;;;;;;5055118;27;89356;-73
2022/04/06 09:52:49;;;;;;;2.80;1.17;;;21.50;46.80;;;;;;5051425;27;88724;-73
2022/04/06 09:55:18;;;;;;;2.27;1.60;;;21.40;46.70;;;;;;5041443;28;88408;-73
2022/04/06 09:57:47;;;;;;;5.40;1.23;;;21.40;46.80;;;;;;5041510;28;89322;-73
2022/04/06 10:00:20;;;;;;;3.50;1.13;;;21.40;46.80;;;;;;5041105;28;90069;-73
2022/04/06 10:02:51;;;;;;;6.33;1.33;;;21.30;46.70;;;;;;5044469;27;88534;-73
2022/04/06 10:05:20;;;;;;;7.67;1.50;;;21.30;46.70;;;;;;5044442;27;88729;-73
2022/04/06 10:07:51;;;;;;;2.27;1.10;;;21.30;46.80;;;;;;5050106;27;89599;-73
2022/04/06 10:10:19;;;;;;;2.80;1.03;;;21.30;46.90;;;;;;5061037;27;90136;-71
2022/04/06 10:12:47;;;;;;;4.77;1.77;;;21.20;46.80;;;;;;5059468;27;88439;-72
2022/04/06 10:15:37;;;;;;;1.23;0.70;;;21.20;46.80;;;;;;5033013;27;88484;-72
2022/04/06 10:18:07;;;;;;;2.93;1.63;;;21.20;46.80;;;;;;5059266;27;90753;-72
2022/04/06 10:20:39;;;;;;;3.90;1.20;;;21.20;46.80;;;;;;5058833;27;90130;-72
2022/04/06 10:23:13;;;;;;;2.43;1.13;;;21.20;46.80;;;;;;5061192;27;89857;-72
2022/04/06 10:26:04;;;;;;;2.83;1.00;;;21.20;46.80;;;;;;5061428;27;88321;-72
2022/04/06 10:28:35;;;;;;;2.27;1.07;;;21.20;46.80;;;;;;5041414;27;92366;-72
2022/04/06 10:31:17;;;;;;;2.77;1.57;;;21.10;46.80;;;;;;5052034;27;92446;-72
2022/04/06 10:33:46;;;;;;;2.43;1.00;;;21.00;46.80;;;;;;5061291;27;89151;-72
2022/04/06 10:36:23;;;;;;;1.30;1.17;;;21.00;47.50;;;;;;5060175;27;88497;-74
2022/04/06 10:39:13;;;;;;;1.90;1.07;;;21.00;46.80;;;;;;5057493;27;92041;-72
2022/04/06 10:42:15;;;;;;;1.27;1.00;;;21.00;46.90;;;;;;5053112;27;89079;-73
2022/04/06 10:44:44;;;;;;;1.83;1.00;;;21.00;46.90;;;;;;5051356;27;89044;-71
2022/04/06 10:47:12;;;;;;;2.27;1.70;;;21.10;47.00;;;;;;5040734;27;88661;-71
2022/04/06 10:49:42;;;;;;;6.07;1.20;;;21.20;47.20;;;;;;5040778;27;92111;-73
2022/04/06 10:52:22;;;;;;;3.03;1.43;;;21.30;47.50;;;;;;5042309;27;90098;-72
2022/04/06 10:54:51;;;;;;;5.17;1.50;;;21.40;47.90;;;;;;5040829;27;89425;-72
2022/04/06 10:57:20;;;;;;;2.40;1.53;;;21.50;48.20;;;;;;5044245;27;88661;-74
2022/04/06 11:00:14;;;;;;;2.20;1.87;;;21.60;48.50;;;;;;5041138;27;90999;-73
2022/04/06 11:02:50;;;;;;;3.00;1.40;;;21.70;48.80;;;;;;5061120;27;90223;-72
2022/04/06 11:05:49;;;;;;;5.23;1.43;;;21.70;48.90;;;;;;5049575;27;89849;-72
2022/04/06 11:11:45;;;;;;;3.53;1.20;;;21.70;49.00;;;;;;5052750;27;90543;-72
2022/04/06 11:14:14;;;;;;;3.63;1.60;;;21.70;49.00;;;;;;5059886;27;88991;-72
2022/04/06 11:16:46;;;;;;;3.23;1.23;;;21.70;49.00;;;;;;5060986;27;90059;-73
2022/04/06 11:19:14;;;;;;;2.03;1.17;;;21.70;49.10;;;;;;5061004;27;88614;-72
2022/04/06 11:21:54;;;;;;;1.17;0.90;;;21.70;49.00;;;;;;5060625;27;89450;-72
2022/04/06 11:24:23;;;;;;;3.40;1.37;;;21.70;49.10;;;;;;5019252;28;90119;-71
2022/04/06 11:26:51;;;;;;;2.27;1.20;;;21.60;49.00;;;;;;5019559;28;88386;-71
2022/04/06 11:29:19;;;;;;;3.30;1.53;;;21.60;49.10;;;;;;5020377;28;88743;-71
2022/04/06 11:31:54;;;;;;;2.30;1.27;;;21.60;49.20;;;;;;5021030;28;90040;-72
2022/04/06 11:34:35;;;;;;;1.50;1.00;;;21.60;49.30;;;;;;5019592;28;90127;-70
2022/04/06 11:37:05;;;;;;;2.80;1.30;;;21.50;49.30;;;;;;5019947;28;88268;-70
2022/04/06 11:39:34;;;;;;;1.67;1.27;;;21.50;49.30;;;;;;5019098;28;88446;-71
2022/04/06 11:42:04;;;;;;;6.50;1.90;;;21.50;49.40;;;;;;5019815;28;90768;-70
2022/04/06 11:44:32;;;;;;;1.93;1.20;;;21.50;49.50;;;;;;5032381;28;88740;-71
2022/04/06 11:47:00;;;;;;;2.97;1.47;;;21.50;49.60;;;;;;5040201;28;88356;-70
2022/04/06 11:49:29;;;;;;;2.37;0.90;;;21.50;50.30;;;;;;5040173;27;88487;-71
2022/04/06 11:51:58;;;;;;;1.17;1.00;;;21.50;49.80;;;;;;5038847;27;89525;-72
2022/04/06 11:54:28;;;;;;;4.03;1.27;;;21.50;49.90;;;;;;5038463;27;89033;-72
2022/04/06 11:56:57;;;;;;;3.80;1.53;;;21.40;49.80;;;;;;5038476;28;88704;-71
2022/04/06 11:59:26;;;;;;;2.73;0.97;;;21.50;50.00;;;;;;5039635;27;88355;-71
2022/04/06 12:01:54;;;;;;;2.27;0.93;;;21.50;50.00;;;;;;5051567;27;89396;-71
2022/04/06 12:04:23;;;;;;;4.13;0.90;;;21.40;50.00;;;;;;5055618;27;90371;-71
2022/04/06 12:06:52;;;;;;;4.50;1.27;;;21.50;50.10;;;;;;5048051;27;91611;-71
2022/04/06 12:09:20;;;;;;;3.07;1.33;;;21.40;50.00;;;;;;5060486;27;88491;-71
2022/04/06 12:11:51;;;;;;;2.20;1.33;;;21.40;50.10;;;;;;5044578;27;89479;-72
2022/04/06 12:14:20;;;;;;;4.20;1.33;;;21.40;50.10;;;;;;5040215;28;88878;-72
2022/04/06 12:16:49;;;;;;;6.73;1.53;;;21.40;50.10;;;;;;5039323;28;89222;-71
2022/04/06 12:19:18;;;;;;;1.73;1.20;;;21.40;50.20;;;;;;5039829;28;88585;-71
2022/04/06 12:21:47;;;;;;;2.40;1.23;;;21.40;50.20;;;;;;5039771;28;89364;-71
2022/04/06 12:24:17;;;;;;;3.30;1.10;;;21.40;50.30;;;;;;5056966;27;88457;-75
2022/04/06 12:26:51;;;;;;;2.37;1.10;;;21.40;50.30;;;;;;5051514;27;88693;-73
2022/04/06 12:29:20;;;;;;;1.17;0.80;;;21.40;50.40;;;;;;5039823;27;88709;-72
2022/04/06 12:31:48;;;;;;;1.70;1.27;;;21.30;50.40;;;;;;5039314;27;89691;-72
2022/04/06 12:34:32;;;;;;;2.70;1.37;;;21.30;51.00;;;;;;5038711;27;88939;-71
2022/04/06 12:37:29;;;;;;;2.07;0.83;;;21.30;50.50;;;;;;5038928;27;88413;-72
2022/04/06 12:39:50;;;;;;;1.03;1.00;;;21.30;50.50;;;;;;5037861;28;88581;-72
2022/04/06 12:42:18;;;;;;;2.57;1.23;;;21.30;50.50;;;;;;5038373;28;91134;-70
2022/04/06 12:44:58;;;;;;;2.90;1.07;;;21.30;50.60;;;;;;5039416;27;90054;-71
2022/04/06 12:47:26;;;;;;;0.97;0.67;;;21.30;50.70;;;;;;5038768;27;88616;-72
2022/04/06 12:50:18;;;;;;;1.20;0.83;;;21.20;50.60;;;;;;5038663;28;88441;-72
2022/04/06 12:52:49;;;;;;;0.90;0.87;;;21.20;50.80;;;;;;5038589;27;90698;-72
2022/04/06 12:55:17;;;;;;;0.87;0.70;;;21.20;50.80;;;;;;5038300;27;89271;-72
2022/04/06 12:57:45;;;;;;;1.83;1.00;;;21.20;50.80;;;;;;5038442;27;90913;-72
2022/04/06 13:00:21;;;;;;;2.50;0.87;;;21.20;50.90;;;;;;5038383;27;88639;-72
2022/04/06 13:02:50;;;;;;;1.40;1.03;;;21.20;51.00;;;;;;5038629;28;90699;-71
2022/04/06 13:05:19;;;;;;;1.63;1.13;;;21.20;50.90;;;;;;5039032;27;88995;-71
2022/04/06 13:07:48;;;;;;;1.67;1.07;;;21.20;51.00;;;;;;5042601;28;91651;-71
2022/04/06 13:10:17;;;;;;;1.80;1.00;;;21.20;51.00;;;;;;5042224;28;88588;-72